Time;durP1;ratioP1;P1;durP2;ratioP2;P2;SDS_P1;SDS_P2;PMS_P1;PMS_P2;Temp;Humidity;BMP_temperature;BMP_pressure;BME280_temperature;BME280_humidity;BME280_pressure;Samples;Min_cycle;Max_cycle;Signal;HPM_P1;HPM_P2
2022/08/19 00:04:24;;;;;;;5.30;1.65;;;;;;;;;;10076273;29;20849;-90
2022/08/19 00:09:26;;;;;;;5.82;1.63;;;;;;;;;;10081361;29;20526;-90
2022/08/19 00:14:31;;;;;;;4.55;1.30;;;;;;;;;;10077306;29;20931;-90
2022/08/19 00:19:33;;;;;;;8.43;1.55;;;;;;;;;;10075439;29;20453;-90
2022/08/19 00:24:37;;;;;;;7.20;1.93;;;;;;;;;;10075292;29;20429;-91
2022/08/19 00:29:40;;;;;;;6.27;1.70;;;;;;;;;;10073033;29;20467;-90
2022/08/19 00:34:43;;;;;;;9.73;2.17;;;;;;;;;;10074714;29;20479;-89
2022/08/19 00:39:45;;;;;;;4.97;1.75;;;;;;;;;;10077812;29;20429;-91
2022/08/19 00:44:48;;;;;;;5.68;1.80;;;;;;;;;;10069881;29;20427;-91
2022/08/19 00:49:53;;;;;;;8.45;3.28;;;;;;;;;;10076991;29;20999;-92
2022/08/19 00:54:57;;;;;;;5.93;1.92;;;;;;;;;;10076192;29;20444;-92
2022/08/19 01:00:01;;;;;;;7.55;2.15;;;;;;;;;;10078932;29;20505;-92
2022/08/19 01:05:07;;;;;;;8.23;2.58;;;;;;;;;;10074670;29;20458;-92
2022/08/19 01:10:15;;;;;;;6.72;1.77;;;;;;;;;;10074057;29;20521;-93
2022/08/19 01:15:22;;;;;;;7.03;2.33;;;;;;;;;;10079427;29;20813;-91
2022/08/19 01:20:25;;;;;;;5.88;1.92;;;;;;;;;;10076730;29;20967;-92
2022/08/19 01:25:33;;;;;;;5.00;1.93;;;;;;;;;;10066877;29;20435;-93
2022/08/19 01:30:37;;;;;;;5.30;2.03;;;;;;;;;;10072327;29;20431;-92
2022/08/19 01:35:39;;;;;;;6.70;2.30;;;;;;;;;;10073181;29;20415;-93
2022/08/19 01:40:42;;;;;;;5.13;1.85;;;;;;;;;;10070633;29;20513;-92
2022/08/19 01:45:47;;;;;;;4.63;2.00;;;;;;;;;;10072973;29;20462;-92
2022/08/19 01:50:49;;;;;;;5.50;2.30;;;;;;;;;;10072994;29;20535;-91
2022/08/19 01:55:52;;;;;;;5.43;2.30;;;;;;;;;;10070480;29;20424;-92
2022/08/19 02:00:54;;;;;;;5.35;1.80;;;;;;;;;;10072671;29;20516;-91
2022/08/19 02:05:59;;;;;;;6.28;2.20;;;;;;;;;;10072528;29;20507;-92
2022/08/19 02:11:02;;;;;;;4.93;1.77;;;;;;;;;;10073079;29;20496;-91
2022/08/19 02:16:05;;;;;;;4.65;1.70;;;;;;;;;;10074063;29;20427;-92
2022/08/19 02:21:07;;;;;;;4.88;1.55;;;;;;;;;;10076409;29;20428;-91
2022/08/19 02:26:10;;;;;;;5.43;1.50;;;;;;;;;;10076594;29;20933;-92
2022/08/19 02:31:15;;;;;;;5.82;1.38;;;;;;;;;;10069778;29;20646;-88
2022/08/19 02:36:18;;;;;;;3.92;1.35;;;;;;;;;;10069129;29;20425;-91
2022/08/19 02:41:23;;;;;;;4.88;1.80;;;;;;;;;;10086441;29;20430;-91
2022/08/19 02:46:27;;;;;;;5.45;1.50;;;;;;;;;;10091812;29;20425;-91
2022/08/19 02:51:32;;;;;;;4.07;1.55;;;;;;;;;;10111505;29;20411;-90
2022/08/19 02:56:38;;;;;;;4.53;1.93;;;;;;;;;;10091005;29;20469;-91
2022/08/19 03:01:42;;;;;;;5.72;2.00;;;;;;;;;;10078031;29;20520;-91
2022/08/19 03:06:45;;;;;;;5.68;1.92;;;;;;;;;;10081674;29;20426;-91
2022/08/19 03:11:50;;;;;;;5.35;1.50;;;;;;;;;;10066107;29;20435;-91
2022/08/19 03:16:52;;;;;;;3.97;1.23;;;;;;;;;;10080867;29;20423;-90
2022/08/19 03:21:55;;;;;;;3.88;1.25;;;;;;;;;;10076361;29;20826;-90
2022/08/19 03:26:59;;;;;;;5.33;1.43;;;;;;;;;;10076537;29;20520;-90
2022/08/19 03:32:03;;;;;;;4.00;1.43;;;;;;;;;;10075635;29;20993;-89
2022/08/19 03:37:10;;;;;;;4.13;1.17;;;;;;;;;;10074451;29;20889;-89
2022/08/19 03:42:13;;;;;;;3.35;1.40;;;;;;;;;;10076982;29;20411;-90
2022/08/19 03:47:16;;;;;;;3.05;1.30;;;;;;;;;;10079233;29;21005;-90
2022/08/19 03:52:18;;;;;;;4.43;1.00;;;;;;;;;;10071559;29;20474;-90
2022/08/19 03:57:21;;;;;;;3.47;1.20;;;;;;;;;;10072316;29;20441;-90
2022/08/19 04:02:23;;;;;;;3.87;1.20;;;;;;;;;;10071508;29;20934;-91
2022/08/19 04:07:25;;;;;;;4.60;1.20;;;;;;;;;;10075355;29;20438;-91
2022/08/19 04:12:29;;;;;;;2.95;1.90;;;;;;;;;;10076930;29;20439;-91
2022/08/19 04:17:32;;;;;;;4.30;1.27;;;;;;;;;;10072327;29;20445;-91
2022/08/19 04:22:33;;;;;;;4.38;1.30;;;;;;;;;;10070760;29;20423;-90
2022/08/19 04:27:37;;;;;;;5.13;1.08;;;;;;;;;;10075272;29;20555;-91
2022/08/19 04:32:39;;;;;;;4.50;1.17;;;;;;;;;;10070924;29;20519;-91
2022/08/19 04:37:41;;;;;;;3.15;1.10;;;;;;;;;;10081185;29;20984;-91
2022/08/19 04:42:44;;;;;;;6.10;1.60;;;;;;;;;;10072096;29;20491;-91
2022/08/19 04:47:46;;;;;;;4.78;1.40;;;;;;;;;;10069985;29;20427;-90
2022/08/19 04:52:50;;;;;;;4.45;1.23;;;;;;;;;;10066334;29;20424;-91
2022/08/19 04:57:54;;;;;;;3.05;1.23;;;;;;;;;;10073436;29;20999;-91
2022/08/19 05:02:56;;;;;;;2.75;1.33;;;;;;;;;;10073274;29;20423;-91
2022/08/19 05:07:58;;;;;;;4.13;1.10;;;;;;;;;;10073406;29;20427;-91
2022/08/19 05:13:01;;;;;;;4.95;1.10;;;;;;;;;;10075287;29;20491;-91
2022/08/19 05:23:22;;;;;;;4.57;0.90;;;;;;;;;;10071957;29;20415;-90
2022/08/19 05:28:27;;;;;;;3.97;1.00;;;;;;;;;;10068844;29;20525;-91
2022/08/19 05:33:29;;;;;;;2.67;1.20;;;;;;;;;;10072183;29;20522;-91
2022/08/19 05:38:31;;;;;;;3.28;1.67;;;;;;;;;;10055488;29;21013;-91
2022/08/19 05:43:36;;;;;;;3.10;1.10;;;;;;;;;;10070413;29;20458;-91
2022/08/19 05:48:39;;;;;;;3.20;1.20;;;;;;;;;;10069907;29;20424;-91
2022/08/19 05:53:41;;;;;;;5.05;1.10;;;;;;;;;;10075151;29;20436;-91
2022/08/19 05:58:46;;;;;;;3.20;0.95;;;;;;;;;;10069635;29;20519;-91
2022/08/19 06:03:48;;;;;;;4.05;1.00;;;;;;;;;;10068379;29;20517;-90
2022/08/19 06:08:50;;;;;;;4.88;1.42;;;;;;;;;;10056787;29;20446;-91
2022/08/19 06:13:58;;;;;;;4.18;1.50;;;;;;;;;;10076028;29;20530;-91
2022/08/19 06:19:02;;;;;;;2.38;1.00;;;;;;;;;;10083043;29;20426;-91
2022/08/19 06:24:07;;;;;;;4.00;1.40;;;;;;;;;;10079098;29;20486;-91
2022/08/19 06:29:14;;;;;;;5.18;1.20;;;;;;;;;;10085618;29;20981;-91
2022/08/19 06:34:16;;;;;;;4.17;1.10;;;;;;;;;;10082542;29;20833;-90
2022/08/19 06:39:21;;;;;;;2.53;1.20;;;;;;;;;;10114513;29;21312;-91
2022/08/19 06:44:27;;;;;;;3.90;1.20;;;;;;;;;;10080422;29;20457;-91
2022/08/19 06:49:30;;;;;;;5.22;1.05;;;;;;;;;;10078105;29;20844;-91
2022/08/19 06:54:33;;;;;;;3.20;1.10;;;;;;;;;;10076023;29;20433;-92
2022/08/19 06:59:36;;;;;;;2.83;1.03;;;;;;;;;;10079199;29;20824;-91
2022/08/19 07:04:39;;;;;;;4.95;1.30;;;;;;;;;;10080444;29;20435;-91
2022/08/19 07:09:43;;;;;;;3.00;1.30;;;;;;;;;;10072962;29;20443;-92
2022/08/19 07:14:49;;;;;;;2.42;0.90;;;;;;;;;;10078578;29;20428;-91
2022/08/19 07:19:51;;;;;;;2.83;1.02;;;;;;;;;;10074655;29;20522;-91
2022/08/19 07:24:53;;;;;;;2.88;0.80;;;;;;;;;;10076254;29;20433;-92
2022/08/19 07:29:57;;;;;;;3.97;1.23;;;;;;;;;;10079614;29;20439;-91
2022/08/19 07:35:03;;;;;;;3.22;1.23;;;;;;;;;;10074693;29;20532;-91
2022/08/19 07:40:06;;;;;;;5.27;1.10;;;;;;;;;;10079262;29;20489;-92
2022/08/19 07:45:11;;;;;;;4.97;1.20;;;;;;;;;;10085008;29;20868;-92
2022/08/19 07:50:13;;;;;;;4.68;1.33;;;;;;;;;;10081409;29;20445;-92
2022/08/19 07:55:15;;;;;;;6.32;1.50;;;;;;;;;;10075851;29;20427;-93
2022/08/19 08:00:21;;;;;;;6.45;1.30;;;;;;;;;;10077245;29;20451;-92
2022/08/19 08:10:42;;;;;;;3.75;1.63;;;;;;;;;;10071618;29;20478;-93
2022/08/19 08:15:46;;;;;;;4.17;1.63;;;;;;;;;;10074698;29;20428;-92
2022/08/19 08:20:48;;;;;;;3.38;1.60;;;;;;;;;;10067739;29;20476;-92
2022/08/19 08:25:50;;;;;;;3.40;1.60;;;;;;;;;;10074075;29;20452;-92
2022/08/19 08:30:54;;;;;;;4.72;2.30;;;;;;;;;;10075365;29;20527;-92
2022/08/19 08:35:55;;;;;;;4.33;2.10;;;;;;;;;;10095082;29;20917;-90
2022/08/19 08:41:06;;;;;;;4.77;2.43;;;;;;;;;;10076439;29;20452;-92
2022/08/19 08:46:13;;;;;;;7.97;2.65;;;;;;;;;;10082554;29;20498;-91
2022/08/19 08:51:23;;;;;;;4.90;2.00;;;;;;;;;;10073894;29;20434;-92
2022/08/19 08:56:25;;;;;;;5.82;1.92;;;;;;;;;;10071170;29;20513;-91
2022/08/19 09:01:29;;;;;;;3.23;1.37;;;;;;;;;;10077166;29;20518;-92
2022/08/19 09:06:39;;;;;;;3.50;1.58;;;;;;;;;;10071601;29;20432;-92
2022/08/19 09:11:56;;;;;;;3.88;1.70;;;;;;;;;;10076520;29;20911;-92
2022/08/19 09:17:00;;;;;;;5.53;1.63;;;;;;;;;;10074608;29;21090;-91
2022/08/19 09:22:02;;;;;;;2.90;1.58;;;;;;;;;;10070927;29;20424;-92
2022/08/19 09:27:04;;;;;;;3.65;1.20;;;;;;;;;;10074062;29;21033;-91
2022/08/19 09:32:07;;;;;;;4.03;1.50;;;;;;;;;;10073131;29;20535;-92
2022/08/19 09:37:09;;;;;;;3.72;1.40;;;;;;;;;;10072261;29;20498;-92
2022/08/19 09:42:13;;;;;;;4.17;1.33;;;;;;;;;;10070606;29;20789;-92
2022/08/19 09:47:16;;;;;;;2.92;1.15;;;;;;;;;;10075797;29;20488;-91
2022/08/19 09:52:18;;;;;;;3.25;1.25;;;;;;;;;;10071722;29;20547;-91
2022/08/19 09:57:20;;;;;;;3.20;1.10;;;;;;;;;;10071772;29;20434;-92
2022/08/19 10:02:24;;;;;;;2.60;1.13;;;;;;;;;;10072485;29;20455;-91
2022/08/19 10:07:26;;;;;;;2.80;1.10;;;;;;;;;;10072274;29;20536;-91
2022/08/19 10:12:28;;;;;;;4.63;1.10;;;;;;;;;;10070948;29;20470;-91
2022/08/19 10:17:33;;;;;;;2.47;0.70;;;;;;;;;;10076571;29;20420;-91
2022/08/19 10:22:37;;;;;;;1.83;0.97;;;;;;;;;;10077863;29;20485;-91
2022/08/19 10:27:39;;;;;;;2.55;1.10;;;;;;;;;;10065224;29;20910;-91
2022/08/19 10:32:42;;;;;;;2.22;0.90;;;;;;;;;;10073503;29;20473;-90
2022/08/19 10:37:44;;;;;;;1.07;0.80;;;;;;;;;;10070585;29;20482;-91
2022/08/19 10:42:46;;;;;;;2.90;0.80;;;;;;;;;;10069207;29;20507;-91
2022/08/19 10:47:49;;;;;;;3.33;0.90;;;;;;;;;;10067172;29;20986;-91
2022/08/19 10:52:51;;;;;;;2.58;0.90;;;;;;;;;;10074125;29;20476;-91
2022/08/19 10:57:53;;;;;;;3.08;0.90;;;;;;;;;;10086538;29;20471;-90
2022/08/19 11:02:56;;;;;;;3.53;1.00;;;;;;;;;;10125417;29;20560;-90
2022/08/19 11:07:58;;;;;;;4.18;1.10;;;;;;;;;;10079062;29;20786;-91
2022/08/19 11:13:00;;;;;;;3.33;1.33;;;;;;;;;;10076613;29;20519;-90
2022/08/19 11:18:05;;;;;;;2.70;1.40;;;;;;;;;;10077025;29;20421;-91
2022/08/19 11:23:07;;;;;;;4.20;1.37;;;;;;;;;;10074907;29;20926;-91
2022/08/19 11:28:09;;;;;;;3.17;1.13;;;;;;;;;;10074572;29;20755;-91
2022/08/19 11:33:12;;;;;;;2.88;1.00;;;;;;;;;;10079593;29;20497;-91
2022/08/19 11:38:14;;;;;;;1.40;0.90;;;;;;;;;;10075817;29;20534;-91
2022/08/19 11:43:17;;;;;;;6.13;1.20;;;;;;;;;;10078192;29;20788;-91
2022/08/19 11:48:22;;;;;;;2.03;0.83;;;;;;;;;;10072962;29;20439;-90
2022/08/19 11:53:24;;;;;;;2.95;1.00;;;;;;;;;;10075779;29;20452;-90
2022/08/19 11:58:26;;;;;;;1.77;0.93;;;;;;;;;;10076815;29;20423;-90
2022/08/19 12:03:30;;;;;;;1.20;0.60;;;;;;;;;;10077188;29;20492;-91
2022/08/19 12:08:32;;;;;;;1.03;0.73;;;;;;;;;;10076002;29;20485;-90
2022/08/19 12:13:35;;;;;;;1.65;0.70;;;;;;;;;;10087613;29;20448;-91
2022/08/19 12:18:38;;;;;;;2.25;1.00;;;;;;;;;;10074768;29;20444;-90
2022/08/19 12:23:41;;;;;;;4.30;0.80;;;;;;;;;;10074178;29;20530;-91
2022/08/19 12:28:43;;;;;;;2.72;0.77;;;;;;;;;;10057803;29;20456;-91
2022/08/19 12:33:47;;;;;;;2.80;1.08;;;;;;;;;;10077012;29;20462;-92
2022/08/19 12:38:50;;;;;;;2.35;0.90;;;;;;;;;;10051800;29;20455;-91
2022/08/19 12:43:52;;;;;;;2.08;0.80;;;;;;;;;;10077836;29;20442;-91
2022/08/19 12:48:55;;;;;;;2.42;0.90;;;;;;;;;;10075439;29;20494;-93
2022/08/19 12:53:57;;;;;;;1.90;0.80;;;;;;;;;;10078045;29;20437;-91
2022/08/19 12:59:02;;;;;;;4.75;1.13;;;;;;;;;;10075567;29;20428;-91
2022/08/19 13:04:05;;;;;;;2.05;0.70;;;;;;;;;;10073042;29;20501;-91
2022/08/19 13:09:09;;;;;;;1.90;0.80;;;;;;;;;;10076696;29;22245;-91
2022/08/19 13:14:11;;;;;;;1.00;0.50;;;;;;;;;;10074296;29;20474;-91
2022/08/19 13:19:15;;;;;;;2.55;0.68;;;;;;;;;;10074055;29;20432;-92
2022/08/19 13:24:17;;;;;;;2.78;0.73;;;;;;;;;;10069873;29;20853;-92
2022/08/19 13:34:39;;;;;;;2.95;0.60;;;;;;;;;;10072108;29;20853;-92
2022/08/19 13:39:41;;;;;;;2.70;1.00;;;;;;;;;;10067319;29;20975;-92
2022/08/19 13:44:44;;;;;;;2.45;0.85;;;;;;;;;;10071279;29;20428;-92
2022/08/19 13:49:49;;;;;;;2.30;0.90;;;;;;;;;;10071969;29;20942;-92
2022/08/19 13:54:51;;;;;;;3.53;1.10;;;;;;;;;;10066765;29;20492;-92
2022/08/19 13:59:53;;;;;;;1.60;0.90;;;;;;;;;;10077444;29;20435;-92
2022/08/19 14:04:57;;;;;;;3.17;1.00;;;;;;;;;;10072084;29;20425;-91
2022/08/19 14:09:59;;;;;;;3.55;1.05;;;;;;;;;;10067758;29;20428;-91
2022/08/19 14:15:02;;;;;;;1.37;0.80;;;;;;;;;;10071080;29;20496;-92
2022/08/19 14:20:09;;;;;;;1.75;1.00;;;;;;;;;;10071427;29;20424;-92
2022/08/19 14:25:17;;;;;;;3.65;0.80;;;;;;;;;;10077026;29;20434;-92
2022/08/19 14:30:29;;;;;;;3.10;0.95;;;;;;;;;;10080526;29;20803;-92
2022/08/19 14:35:34;;;;;;;3.17;1.08;;;;;;;;;;10082633;29;20839;-91
2022/08/19 14:40:37;;;;;;;1.70;0.80;;;;;;;;;;10075655;29;20460;-91
2022/08/19 14:45:40;;;;;;;2.27;1.30;;;;;;;;;;10081801;29;20804;-91
2022/08/19 14:50:44;;;;;;;2.15;1.20;;;;;;;;;;10077662;29;20514;-91
2022/08/19 14:55:47;;;;;;;3.80;0.90;;;;;;;;;;10080443;29;20430;-91
2022/08/19 15:00:49;;;;;;;2.75;0.90;;;;;;;;;;10074407;29;20524;-91
2022/08/19 15:05:53;;;;;;;1.90;1.00;;;;;;;;;;10077338;29;20484;-91
2022/08/19 15:10:55;;;;;;;2.20;0.90;;;;;;;;;;10078545;29;20998;-91
2022/08/19 15:15:57;;;;;;;2.00;0.80;;;;;;;;;;10076523;29;20886;-91
2022/08/19 15:21:00;;;;;;;3.60;0.85;;;;;;;;;;10090464;29;20411;-90
2022/08/19 15:26:02;;;;;;;3.33;0.90;;;;;;;;;;10078063;29;20458;-91
2022/08/19 15:31:04;;;;;;;2.53;1.10;;;;;;;;;;10078414;29;20519;-91
2022/08/19 15:36:08;;;;;;;3.28;1.20;;;;;;;;;;10078366;29;20493;-91
2022/08/19 15:41:24;;;;;;;2.80;1.00;;;;;;;;;;10078892;29;20419;-91
2022/08/19 15:46:28;;;;;;;2.45;0.90;;;;;;;;;;10078537;29;20516;-91
2022/08/19 15:51:34;;;;;;;2.03;1.20;;;;;;;;;;10079207;29;20447;-90
2022/08/19 16:06:24;;;;;;;2.83;1.00;;;;;;;;;;10084832;29;20506;-91
2022/08/19 16:07:29;;;;;;;2.47;1.00;;;;;;;;;;10095548;29;20397;-89
2022/08/19 16:12:31;;;;;;;1.88;0.90;;;;;;;;;;10107077;29;20440;-89
2022/08/19 16:17:34;;;;;;;2.63;1.10;;;;;;;;;;10112259;29;21025;-86
2022/08/19 16:22:38;;;;;;;3.78;1.13;;;;;;;;;;10110880;29;20419;-86
2022/08/19 16:27:41;;;;;;;4.40;1.13;;;;;;;;;;10103899;29;20441;-87
2022/08/19 16:32:43;;;;;;;1.52;1.00;;;;;;;;;;10111858;29;20430;-86
2022/08/19 16:37:47;;;;;;;4.15;1.10;;;;;;;;;;10111264;29;20419;-86
2022/08/19 16:42:50;;;;;;;5.50;1.55;;;;;;;;;;10108529;29;20424;-86
2022/08/19 16:47:52;;;;;;;4.32;1.70;;;;;;;;;;10112268;29;20449;-86
2022/08/19 16:52:57;;;;;;;3.33;1.35;;;;;;;;;;10117498;29;20521;-86
2022/08/19 16:58:03;;;;;;;6.67;1.30;;;;;;;;;;10108691;29;20425;-87
2022/08/19 17:03:09;;;;;;;2.88;1.35;;;;;;;;;;10110802;29;20506;-86
2022/08/19 17:08:13;;;;;;;3.30;1.30;;;;;;;;;;10108982;29;20479;-86
2022/08/19 17:13:15;;;;;;;4.13;1.57;;;;;;;;;;10105849;29;20600;-86
2022/08/19 17:18:18;;;;;;;4.97;1.30;;;;;;;;;;10107100;29;20421;-87
2022/08/19 17:23:22;;;;;;;3.65;1.40;;;;;;;;;;10078428;29;20429;-87
2022/08/19 17:28:26;;;;;;;3.80;1.85;;;;;;;;;;10091178;29;20515;-87
2022/08/19 17:33:28;;;;;;;3.87;1.17;;;;;;;;;;10103709;29;20429;-87
2022/08/19 17:38:33;;;;;;;4.80;1.60;;;;;;;;;;10107381;29;20932;-87
2022/08/19 17:43:37;;;;;;;4.00;1.73;;;;;;;;;;10103407;29;20449;-87
2022/08/19 17:48:39;;;;;;;3.60;1.83;;;;;;;;;;10101410;29;20833;-87
2022/08/19 17:53:43;;;;;;;5.40;1.60;;;;;;;;;;10109767;29;20525;-87
2022/08/19 17:58:46;;;;;;;3.90;1.50;;;;;;;;;;10106159;29;20820;-87
2022/08/19 18:03:48;;;;;;;5.03;1.55;;;;;;;;;;10074873;29;20789;-87
2022/08/19 18:08:51;;;;;;;5.50;1.98;;;;;;;;;;10083701;29;20502;-87
2022/08/19 18:13:53;;;;;;;7.17;1.87;;;;;;;;;;10084497;29;20558;-87
2022/08/19 18:18:56;;;;;;;5.38;2.35;;;;;;;;;;10080758;29;20420;-87
2022/08/19 18:24:00;;;;;;;4.60;1.53;;;;;;;;;;10083477;29;20447;-86
2022/08/19 18:29:02;;;;;;;3.53;1.63;;;;;;;;;;10077957;29;20429;-87
2022/08/19 18:34:04;;;;;;;4.38;1.58;;;;;;;;;;10085410;29;20463;-86
2022/08/19 18:49:47;;;;;;;4.38;1.67;;;;;;;;;;10082716;29;20412;-87
2022/08/19 18:54:50;;;;;;;8.55;2.17;;;;;;;;;;10076268;29;20438;-87
2022/08/19 18:59:52;;;;;;;4.30;1.90;;;;;;;;;;10089681;29;20465;-87
2022/08/19 19:04:57;;;;;;;3.53;1.73;;;;;;;;;;10125053;29;20413;-87
2022/08/19 19:10:01;;;;;;;5.50;2.00;;;;;;;;;;10121634;29;20468;-87
2022/08/19 19:15:04;;;;;;;4.78;1.73;;;;;;;;;;10114854;29;20433;-87
2022/08/19 19:20:07;;;;;;;5.60;2.25;;;;;;;;;;10115845;29;20435;-87
2022/08/19 19:25:10;;;;;;;4.57;2.08;;;;;;;;;;10112585;29;20497;-89
2022/08/19 19:30:13;;;;;;;4.25;2.15;;;;;;;;;;10111642;29;20450;-87
2022/08/19 19:35:15;;;;;;;6.03;2.53;;;;;;;;;;10113927;29;20442;-87
2022/08/19 19:40:20;;;;;;;4.15;2.03;;;;;;;;;;10113952;29;20835;-87
2022/08/19 19:45:23;;;;;;;4.17;2.00;;;;;;;;;;10110630;29;20433;-87
2022/08/19 19:50:27;;;;;;;2.60;1.50;;;;;;;;;;10152148;29;20414;-86
2022/08/19 19:55:30;;;;;;;5.00;1.73;;;;;;;;;;10112145;29;20798;-88
2022/08/19 20:00:32;;;;;;;4.63;1.80;;;;;;;;;;10135722;29;20417;-88
2022/08/19 20:05:34;;;;;;;4.47;2.38;;;;;;;;;;10097903;29;20578;-87
2022/08/19 20:10:38;;;;;;;4.32;1.70;;;;;;;;;;10089546;29;20419;-87
2022/08/19 20:15:42;;;;;;;3.35;1.63;;;;;;;;;;10111183;29;21005;-87
2022/08/19 20:20:45;;;;;;;3.80;1.77;;;;;;;;;;10112681;29;20423;-87
2022/08/19 20:25:49;;;;;;;4.70;1.80;;;;;;;;;;10105728;29;20466;-87
2022/08/19 20:30:51;;;;;;;3.15;2.00;;;;;;;;;;10111029;29;20744;-87
2022/08/19 20:35:53;;;;;;;5.47;2.08;;;;;;;;;;10110316;29;20483;-87
2022/08/19 20:40:56;;;;;;;6.28;2.05;;;;;;;;;;10103381;29;20530;-86
2022/08/19 20:45:58;;;;;;;4.50;2.30;;;;;;;;;;10111254;29;20470;-87
2022/08/19 20:51:00;;;;;;;4.00;2.10;;;;;;;;;;10111136;29;20502;-87
2022/08/19 20:56:05;;;;;;;4.57;2.10;;;;;;;;;;10107522;29;20445;-88
2022/08/19 21:01:09;;;;;;;5.32;2.20;;;;;;;;;;10111660;29;20421;-87
2022/08/19 21:06:12;;;;;;;5.07;2.50;;;;;;;;;;10110723;29;20516;-87
2022/08/19 21:11:16;;;;;;;3.88;2.28;;;;;;;;;;10113329;29;20485;-87
2022/08/19 21:16:18;;;;;;;6.15;2.22;;;;;;;;;;10106849;29;20419;-87
2022/08/19 21:21:20;;;;;;;6.50;2.47;;;;;;;;;;10110519;29;20421;-87
2022/08/19 21:26:23;;;;;;;6.93;2.60;;;;;;;;;;10102797;29;20466;-87
2022/08/19 21:31:25;;;;;;;4.38;2.45;;;;;;;;;;10110252;29;20433;-87
2022/08/19 21:36:27;;;;;;;3.80;2.10;;;;;;;;;;10109100;29;20417;-87
2022/08/19 21:41:30;;;;;;;5.97;2.45;;;;;;;;;;10105799;29;20421;-87
2022/08/19 21:46:32;;;;;;;5.10;2.40;;;;;;;;;;10109341;29;20413;-87
2022/08/19 21:51:34;;;;;;;6.43;3.10;;;;;;;;;;10109141;29;20941;-87
2022/08/19 21:56:38;;;;;;;5.90;3.07;;;;;;;;;;10108451;29;20864;-87
2022/08/19 22:01:40;;;;;;;4.80;2.50;;;;;;;;;;10108721;29;20495;-87
2022/08/19 22:06:42;;;;;;;4.43;2.40;;;;;;;;;;10108548;29;21004;-87
2022/08/19 22:11:45;;;;;;;4.03;2.30;;;;;;;;;;10105309;29;20490;-87
2022/08/19 22:16:47;;;;;;;5.10;2.30;;;;;;;;;;10109310;29;20875;-87
2022/08/19 22:21:49;;;;;;;3.20;2.42;;;;;;;;;;10109070;29;20504;-87
2022/08/19 22:26:52;;;;;;;8.10;2.50;;;;;;;;;;10102628;29;20429;-87
2022/08/19 22:31:54;;;;;;;3.90;2.27;;;;;;;;;;10108798;29;20438;-87
2022/08/19 22:36:56;;;;;;;5.20;2.30;;;;;;;;;;10111523;29;20492;-87
2022/08/19 22:41:59;;;;;;;7.38;2.50;;;;;;;;;;10106387;29;20433;-87
2022/08/19 22:47:01;;;;;;;4.63;2.45;;;;;;;;;;10109069;29;20450;-87
2022/08/19 22:52:16;;;;;;;6.38;2.17;;;;;;;;;;10115909;29;20443;-87
2022/08/19 22:57:21;;;;;;;4.57;2.40;;;;;;;;;;10113467;29;20425;-87
2022/08/19 23:02:25;;;;;;;3.45;2.35;;;;;;;;;;10111019;29;20507;-87
2022/08/19 23:07:26;;;;;;;3.67;2.05;;;;;;;;;;10115617;29;20450;-87
2022/08/19 23:12:32;;;;;;;4.10;1.77;;;;;;;;;;10113062;29;20497;-87
2022/08/19 23:17:34;;;;;;;2.10;1.80;;;;;;;;;;10114516;29;20928;-87
2022/08/19 23:22:38;;;;;;;4.28;1.92;;;;;;;;;;10117061;29;20498;-87
2022/08/19 23:33:07;;;;;;;3.25;2.25;;;;;;;;;;10100045;29;20425;-87
2022/08/19 23:38:09;;;;;;;4.23;2.00;;;;;;;;;;10112563;29;20427;-87
2022/08/19 23:43:14;;;;;;;4.30;2.00;;;;;;;;;;10113679;29;20425;-87
2022/08/19 23:48:16;;;;;;;4.78;1.88;;;;;;;;;;10113298;29;20514;-87
2022/08/19 23:53:19;;;;;;;3.10;1.70;;;;;;;;;;10113432;29;20538;-87
2022/08/19 23:58:23;;;;;;;3.47;1.63;;;;;;;;;;10108746;29;21004;-87
